Country
Station

 

Weather  for  Blackpool Airport  -  United Kingdom    United Kingdom

  
2 °C (36 °F)
    
 
 

Current METAR for Blackpool Airport is :

EGNH 210820Z 16007KT 0200 FG VV/// 02/02 Q1023

 

This is a report for Blackpool Airport - United Kingdom.
 
The report was made 12 minutes ago, at 08:20 UTC .
The wind was blowing at a speed of 3.6 meters per second (8.1 miles per hour) from south/southeast (160°).
 
The temperature was 2 °C (36 °F), with a dew-point at 2 °C (36 °F).
The temperature felt like -2 °C (30 °F).
 
The atmospheric pressure was 1023 hPa (30.21 inHg).
The relative humidity was 100.0%.
 
There were a vertical visibility of nil meter (nil feet).
 
The overall visibility was 200 meter (656 feet).
 
Currently fog.

 
 
 
 

Country :   A   B   C   D   E   F   G   H   I   J   K   L   M   N   O   P   Q   R   S   T   U   V   W   Y   Z

 

Site Info  |  Disclaimer  |  Credits  |  Privacy
Contact us  |  Add to favorites
© 2013-2019 METARs - All rights reserved